createdAt,value
2022-11-01T00:01:21.893Z,83.24
2022-11-01T00:03:48.587Z,83.35
2022-11-01T00:06:15.246Z,82.99
2022-11-01T00:08:41.922Z,83.12
2022-11-01T00:11:13.098Z,82.82
2022-11-01T00:13:39.955Z,83.09
2022-11-01T00:16:06.895Z,82.99
2022-11-01T00:18:33.571Z,83.05
2022-11-01T00:21:00.241Z,82.95
2022-11-01T00:23:26.938Z,83.95
2022-11-01T00:25:53.615Z,83.70
2022-11-01T00:28:20.312Z,83.18
2022-11-01T00:30:47.021Z,82.72
2022-11-01T00:33:13.681Z,83.02
2022-11-01T00:35:40.421Z,82.65
2022-11-01T00:38:07.107Z,82.06
2022-11-01T00:40:33.899Z,81.63
2022-11-01T00:43:00.560Z,81.30
2022-11-01T00:45:27.273Z,81.08
2022-11-01T00:47:53.991Z,81.25
2022-11-01T00:50:20.742Z,81.34
2022-11-01T00:52:47.594Z,80.90
2022-11-01T00:55:14.412Z,80.51
2022-11-01T00:57:41.079Z,80.25
2022-11-01T01:00:08.496Z,80.14
2022-11-01T01:02:35.274Z,80.86
2022-11-01T01:05:02.024Z,81.20
2022-11-01T01:07:28.680Z,80.94
2022-11-01T01:09:55.362Z,80.67
2022-11-01T01:12:22.029Z,80.31
2022-11-01T01:14:48.738Z,80.19
2022-11-01T01:17:15.578Z,80.17
2022-11-01T01:19:42.232Z,79.66
2022-11-01T01:22:09.075Z,79.64
2022-11-01T01:24:35.803Z,79.54
2022-11-01T01:27:03.585Z,79.54
2022-11-01T01:29:30.406Z,79.07
2022-11-01T01:31:57.077Z,78.87
2022-11-01T01:34:23.710Z,78.24
2022-11-01T01:36:50.389Z,77.76
2022-11-01T01:39:17.044Z,77.89
2022-11-01T01:41:55.938Z,78.21
2022-11-01T01:45:07.983Z,77.98
2022-11-01T01:47:37.719Z,77.62
2022-11-01T01:50:24.284Z,77.78
2022-11-01T01:53:09.656Z,77.79
2022-11-01T01:55:55.108Z,77.89
2022-11-01T01:58:25.575Z,78.11
2022-11-01T02:00:54.196Z,77.85
2022-11-01T02:03:22.903Z,78.18
2022-11-01T02:05:56.752Z,78.10
2022-11-01T02:08:28.090Z,78.57
2022-11-01T02:11:02.104Z,78.76
2022-11-01T02:13:29.459Z,78.99
2022-11-01T02:16:09.669Z,78.88
2022-11-01T02:19:06.094Z,79.25
2022-11-01T02:21:51.508Z,79.22
2022-11-01T02:24:45.218Z,79.54
2022-11-01T02:27:32.403Z,79.36
2022-11-01T02:30:06.461Z,79.16
2022-11-01T02:32:33.053Z,79.11
2022-11-01T02:35:22.745Z,80.13
2022-11-01T02:38:06.438Z,80.82
2022-11-01T02:41:01.126Z,80.67
2022-11-01T02:43:45.487Z,80.42
2022-11-01T02:46:30.722Z,81.64
2022-11-01T02:48:58.221Z,81.03
2022-11-01T02:51:25.773Z,81.10
2022-11-01T02:53:52.511Z,81.28
2022-11-01T02:56:19.357Z,80.64
2022-11-01T02:58:46.849Z,80.53
2022-11-01T03:01:19.442Z,80.56
2022-11-01T03:03:47.883Z,79.91
2022-11-01T03:06:36.620Z,79.37
2022-11-01T03:09:08.022Z,79.17
2022-11-01T03:11:56.021Z,78.97
2022-11-01T03:14:37.888Z,78.45
2022-11-01T03:17:26.654Z,78.37
2022-11-01T03:20:14.331Z,77.79
2022-11-01T03:22:44.302Z,77.92
2022-11-01T03:25:35.759Z,77.48
2022-11-01T03:28:07.408Z,77.07
2022-11-01T03:30:35.115Z,77.38
2022-11-01T03:33:02.486Z,76.77
2022-11-01T03:35:34.705Z,76.87
2022-11-01T03:38:04.791Z,76.96
2022-11-01T03:40:33.062Z,77.10
2022-11-01T03:43:06.384Z,76.82
2022-11-01T03:45:35.844Z,76.86
2022-11-01T03:48:02.951Z,76.63
2022-11-01T03:50:29.936Z,76.68
2022-11-01T03:52:57.200Z,76.68
2022-11-01T03:55:24.053Z,76.52
2022-11-01T03:57:58.765Z,76.83
2022-11-01T04:00:32.483Z,76.84
2022-11-01T04:03:00.124Z,76.99
2022-11-01T04:05:28.952Z,76.77
2022-11-01T04:07:55.958Z,76.83
2022-11-01T04:10:23.896Z,76.71
2022-11-01T04:12:51.483Z,77.74
2022-11-01T04:15:38.225Z,77.63
2022-11-01T04:18:25.141Z,77.58
2022-11-01T04:20:52.892Z,77.42
2022-11-01T04:23:19.589Z,77.00
2022-11-01T04:25:49.175Z,77.03
2022-11-01T04:28:16.173Z,76.88
2022-11-01T04:30:43.985Z,77.25
2022-11-01T04:33:10.835Z,77.51
2022-11-01T04:35:40.873Z,77.50
2022-11-01T04:38:07.655Z,77.85
2022-11-01T04:40:34.528Z,79.41
2022-11-01T04:43:01.282Z,79.71
2022-11-01T04:45:28.023Z,79.77
2022-11-01T04:48:24.497Z,79.82
2022-11-01T04:50:51.183Z,80.86
2022-11-01T04:53:17.958Z,81.23
2022-11-01T04:55:44.687Z,81.99
2022-11-01T04:58:11.612Z,82.04
2022-11-01T05:00:38.690Z,81.98
2022-11-01T05:03:07.680Z,82.69
2022-11-01T05:05:35.071Z,82.57
2022-11-01T05:08:09.430Z,83.15
2022-11-01T05:10:38.700Z,83.12
2022-11-01T05:13:05.966Z,83.26
2022-11-01T05:15:32.959Z,83.73
2022-11-01T05:18:00.175Z,84.50
2022-11-01T05:20:26.846Z,85.15
2022-11-01T05:22:58.260Z,84.58
2022-11-01T05:25:25.032Z,84.47
2022-11-01T05:27:51.681Z,84.23
2022-11-01T05:30:18.461Z,84.04
2022-11-01T05:32:45.122Z,85.14
2022-11-01T05:35:11.799Z,84.38
2022-11-01T05:37:38.540Z,83.86
2022-11-01T05:40:05.713Z,83.74
2022-11-01T05:42:32.624Z,83.49
2022-11-01T05:44:59.302Z,83.96
2022-11-01T05:47:26.015Z,83.59
2022-11-01T05:49:52.655Z,84.08
2022-11-01T05:52:19.322Z,85.54
2022-11-01T05:54:45.954Z,85.21
2022-11-01T05:57:12.591Z,85.32
2022-11-01T05:59:39.291Z,85.45
2022-11-01T06:02:06.016Z,85.74
2022-11-01T06:04:32.769Z,85.24
2022-11-01T06:06:59.469Z,84.99
2022-11-01T06:09:26.126Z,84.87
2022-11-01T06:11:52.827Z,86.34
2022-11-01T06:14:19.459Z,85.61
2022-11-01T06:16:46.148Z,86.07
2022-11-01T06:19:12.911Z,86.59
2022-11-01T06:21:39.566Z,86.22
2022-11-01T06:24:06.341Z,86.22
2022-11-01T06:26:33.084Z,86.20
2022-11-01T06:29:03.350Z,86.41
2022-11-01T06:31:30.045Z,86.72
2022-11-01T06:33:56.702Z,86.32
2022-11-01T06:36:23.741Z,86.76
2022-11-01T06:38:50.423Z,86.81
2022-11-01T06:41:17.124Z,87.37
2022-11-01T06:43:43.816Z,86.73
2022-11-01T06:46:10.478Z,86.63
2022-11-01T06:48:37.104Z,86.24
2022-11-01T06:51:04.614Z,85.51
2022-11-01T06:53:31.450Z,85.13
2022-11-01T06:56:01.688Z,85.05
2022-11-01T06:58:28.654Z,84.33
2022-11-01T07:00:55.411Z,84.31
2022-11-01T07:03:22.224Z,83.65
2022-11-01T07:05:50.208Z,83.61
2022-11-01T07:08:16.870Z,83.54
2022-11-01T07:10:44.167Z,83.46
2022-11-01T07:13:13.324Z,83.58
2022-11-01T07:15:40.402Z,83.61
2022-11-01T07:18:08.470Z,83.16
2022-11-01T07:20:41.514Z,82.80
2022-11-01T07:23:16.274Z,83.22
2022-11-01T07:25:43.433Z,83.92
2022-11-01T07:28:10.605Z,83.80
2022-11-01T07:30:37.553Z,84.93
2022-11-01T07:33:05.296Z,85.16
2022-11-01T07:35:32.504Z,85.01
2022-11-01T07:38:01.270Z,84.48
2022-11-01T07:40:30.447Z,84.96
2022-11-01T07:43:00.152Z,85.30
2022-11-01T07:45:28.515Z,85.56
2022-11-01T07:48:02.830Z,85.23
2022-11-01T07:50:31.565Z,85.22
2022-11-01T07:53:01.861Z,84.93
2022-11-01T07:55:28.697Z,84.72
2022-11-01T07:57:55.571Z,84.47
2022-11-01T08:00:22.473Z,84.46
2022-11-01T08:02:49.672Z,84.11
2022-11-01T08:05:16.700Z,83.63
2022-11-01T08:07:43.387Z,83.95
2022-11-01T08:10:11.580Z,83.96
2022-11-01T08:12:41.117Z,83.13
2022-11-01T08:15:08.413Z,82.61
2022-11-01T08:17:35.106Z,82.91
2022-11-01T08:20:02.215Z,82.73
2022-11-01T08:22:28.927Z,83.18
2022-11-01T08:24:55.751Z,83.93
2022-11-01T08:27:22.484Z,84.10
2022-11-01T08:29:49.180Z,84.32
2022-11-01T08:32:19.978Z,84.69
2022-11-01T08:34:46.630Z,83.95
2022-11-01T08:37:13.775Z,84.62
2022-11-01T08:39:40.450Z,84.22
2022-11-01T08:42:07.255Z,83.62
2022-11-01T08:44:34.739Z,82.99
2022-11-01T08:47:01.863Z,83.99
2022-11-01T08:49:28.739Z,83.99
2022-11-01T08:51:55.918Z,84.01
2022-11-01T08:54:22.678Z,84.01
2022-11-01T08:56:49.320Z,83.97
2022-11-01T08:59:16.007Z,84.16
2022-11-01T09:01:42.774Z,82.91
2022-11-01T09:04:09.597Z,82.09
2022-11-01T09:06:36.631Z,81.97
2022-11-01T09:09:04.280Z,81.52
2022-11-01T09:11:31.210Z,82.30
2022-11-01T09:14:01.422Z,82.10
2022-11-01T09:16:28.543Z,80.98
2022-11-01T09:18:55.385Z,80.36
2022-11-01T09:21:22.054Z,79.23
2022-11-01T09:23:48.949Z,78.65
2022-11-01T09:26:15.710Z,77.97
2022-11-01T09:28:42.435Z,77.18
2022-11-01T09:31:26.339Z,77.22
2022-11-01T09:33:57.373Z,77.02
2022-11-01T09:36:25.188Z,77.45
2022-11-01T09:38:51.931Z,77.08
2022-11-01T09:41:47.399Z,77.63
2022-11-01T09:44:17.892Z,78.13
2022-11-01T09:46:53.485Z,77.98
2022-11-01T09:49:27.136Z,77.58
2022-11-01T09:51:54.385Z,77.17
2022-11-01T09:54:23.539Z,77.34
2022-11-01T09:56:56.263Z,76.87
2022-11-01T09:59:53.919Z,76.99
2022-11-01T10:02:34.540Z,76.94
2022-11-01T10:05:38.753Z,77.40
2022-11-01T10:08:31.159Z,77.78
2022-11-01T10:11:22.870Z,77.63
2022-11-01T10:14:16.361Z,77.98
2022-11-01T10:16:51.653Z,77.82
2022-11-01T10:19:19.558Z,77.71
2022-11-01T10:21:51.380Z,78.09
2022-11-01T10:24:22.042Z,77.96
2022-11-01T10:26:52.606Z,79.51
2022-11-01T10:29:28.374Z,80.49
2022-11-01T10:31:55.304Z,81.20
2022-11-01T10:34:25.650Z,81.95
2022-11-01T10:36:58.981Z,83.30
2022-11-01T10:39:56.175Z,83.68
2022-11-01T10:42:28.458Z,83.65
2022-11-01T10:44:58.821Z,83.61
2022-11-01T10:47:25.921Z,83.43
2022-11-01T10:50:12.406Z,83.68
2022-11-01T10:52:46.863Z,83.57
2022-11-01T10:55:17.776Z,83.17
2022-11-01T10:57:49.523Z,83.24
2022-11-01T11:00:19.490Z,83.18
2022-11-01T11:02:49.466Z,83.37
2022-11-01T11:05:16.514Z,82.90
2022-11-01T11:07:44.499Z,82.74
2022-11-01T11:10:25.117Z,82.38
2022-11-01T11:12:55.392Z,82.20
2022-11-01T11:15:42.489Z,80.85
2022-11-01T11:18:18.070Z,79.91
2022-11-01T11:20:44.878Z,79.12
2022-11-01T11:23:13.018Z,78.97
2022-11-01T11:25:41.800Z,78.76
2022-11-01T11:28:20.356Z,78.68
2022-11-01T11:30:47.209Z,78.39
2022-11-01T11:33:17.369Z,78.63
2022-11-01T11:35:53.112Z,78.48
2022-11-01T11:38:40.626Z,78.42
2022-11-01T11:41:10.119Z,78.16
2022-11-01T11:43:41.174Z,78.71
2022-11-01T11:46:10.804Z,78.24
2022-11-01T11:48:57.235Z,78.43
2022-11-01T11:51:26.748Z,78.91
2022-11-01T11:54:24.564Z,79.03
2022-11-01T11:56:54.220Z,79.41
2022-11-01T11:59:27.694Z,79.80
2022-11-01T12:01:56.769Z,80.21
2022-11-01T12:04:24.962Z,80.54
2022-11-01T12:06:51.866Z,80.35
2022-11-01T12:09:38.502Z,80.83
2022-11-01T12:12:07.017Z,80.95
2022-11-01T12:14:37.002Z,81.81
2022-11-01T12:17:25.788Z,81.65
2022-11-01T12:20:09.698Z,82.10
2022-11-01T12:22:38.568Z,81.68
2022-11-01T12:25:08.453Z,82.63
2022-11-01T12:27:36.157Z,82.05
2022-11-01T12:30:10.484Z,82.06
2022-11-01T12:32:47.821Z,82.55
2022-11-01T12:35:21.372Z,82.72
2022-11-01T12:37:54.012Z,83.37
2022-11-01T12:40:27.155Z,83.13
2022-11-01T12:43:01.633Z,82.98
2022-11-01T12:45:32.189Z,83.37
2022-11-01T12:48:08.854Z,83.61
2022-11-01T12:50:46.368Z,83.18
2022-11-01T12:53:37.824Z,83.36
2022-11-01T12:56:04.688Z,83.75
2022-11-01T12:58:33.868Z,83.45
2022-11-01T13:01:29.115Z,83.17
2022-11-01T13:04:07.060Z,83.56
2022-11-01T13:06:39.939Z,83.70
2022-11-01T13:09:48.708Z,82.79
2022-11-01T13:12:34.912Z,82.69
2022-11-01T13:15:40.754Z,81.18
2022-11-01T13:18:24.569Z,80.82
2022-11-01T13:20:59.355Z,80.59
2022-11-01T13:23:37.148Z,80.10
2022-11-01T13:26:13.529Z,79.98
2022-11-01T13:28:49.281Z,79.91
2022-11-01T13:31:47.126Z,79.45
2022-11-01T13:34:51.612Z,78.90
2022-11-01T13:37:21.267Z,79.28
2022-11-01T13:40:08.165Z,79.00
2022-11-01T13:42:38.907Z,78.49
2022-11-01T13:45:47.562Z,78.17
2022-11-01T13:48:33.193Z,77.85
2022-11-01T13:51:26.072Z,77.83
2022-11-01T13:53:58.799Z,78.00
2022-11-01T13:56:28.038Z,77.84
2022-11-01T13:58:54.818Z,77.50
2022-11-01T14:01:35.981Z,77.75
2022-11-01T14:04:12.345Z,77.87
2022-11-01T14:06:41.969Z,78.14
2022-11-01T14:09:23.883Z,78.04
2022-11-01T14:12:05.862Z,77.95
2022-11-01T14:14:32.652Z,78.02
2022-11-01T14:17:21.115Z,78.22
2022-11-01T14:19:50.084Z,78.44
2022-11-01T14:22:22.772Z,77.95
2022-11-01T14:24:54.195Z,78.29
2022-11-01T14:27:33.987Z,77.93
2022-11-01T14:30:01.780Z,77.95
2022-11-01T14:32:31.021Z,78.24
2022-11-01T14:35:03.859Z,78.10
2022-11-01T14:37:37.465Z,77.90
2022-11-01T14:40:18.894Z,77.86
2022-11-01T14:42:46.999Z,77.99
2022-11-01T14:45:27.984Z,77.44
2022-11-01T14:47:58.437Z,77.75
2022-11-01T14:50:31.666Z,77.60
2022-11-01T14:53:11.307Z,77.40
2022-11-01T14:55:38.722Z,77.19
2022-11-01T14:58:13.141Z,76.76
2022-11-01T15:00:40.400Z,77.23
2022-11-01T15:03:09.026Z,76.77
2022-11-01T15:05:43.976Z,76.50
2022-11-01T15:08:24.965Z,76.43
2022-11-01T15:10:53.553Z,76.40
2022-11-01T15:13:20.829Z,76.65
2022-11-01T15:16:02.067Z,76.66
2022-11-01T15:18:29.083Z,76.37
2022-11-01T15:20:58.287Z,76.15
2022-11-01T15:23:29.049Z,76.21
2022-11-01T15:25:57.222Z,76.43
2022-11-01T15:28:25.832Z,76.49
2022-11-01T15:30:57.395Z,75.77
2022-11-01T15:33:30.814Z,76.00
2022-11-01T15:35:59.854Z,75.63
2022-11-01T15:38:27.438Z,75.63
2022-11-01T15:40:54.289Z,76.23
2022-11-01T15:43:23.250Z,75.99
2022-11-01T15:45:55.495Z,75.97
2022-11-01T15:48:29.073Z,75.95
2022-11-01T15:51:01.433Z,76.00
2022-11-01T15:53:31.130Z,75.94
2022-11-01T15:56:12.893Z,76.72
2022-11-01T15:58:48.245Z,76.82
2022-11-01T16:01:18.346Z,76.63
2022-11-01T16:03:55.699Z,76.47
2022-11-01T16:06:23.490Z,76.23
2022-11-01T16:09:06.580Z,75.94
2022-11-01T16:11:34.359Z,75.44
2022-11-01T16:14:07.221Z,75.66
2022-11-01T16:16:56.805Z,75.33
2022-11-01T16:19:36.281Z,75.07
2022-11-01T16:22:03.747Z,74.75
2022-11-01T16:24:31.123Z,74.93
2022-11-01T16:27:03.758Z,75.13
2022-11-01T16:29:50.444Z,75.12
2022-11-01T16:32:20.097Z,75.08
2022-11-01T16:34:47.326Z,74.74
2022-11-01T16:37:29.638Z,74.82
2022-11-01T16:39:57.932Z,74.85
2022-11-01T16:42:24.900Z,75.00
2022-11-01T16:44:56.379Z,74.78
2022-11-01T16:47:23.679Z,75.08
2022-11-01T16:49:55.231Z,74.99
2022-11-01T16:52:22.586Z,75.07
2022-11-01T16:54:51.255Z,75.00
2022-11-01T16:57:24.109Z,74.99
2022-11-01T16:59:51.473Z,75.05
2022-11-01T17:02:21.014Z,75.06
2022-11-01T17:04:50.539Z,74.85
2022-11-01T17:07:17.593Z,75.48
2022-11-01T17:09:44.364Z,75.66
2022-11-01T17:12:11.687Z,75.88
2022-11-01T17:14:38.690Z,75.33
2022-11-01T17:17:08.850Z,75.33
2022-11-01T17:19:38.376Z,75.35
2022-11-01T17:22:08.560Z,75.35
2022-11-01T17:24:35.469Z,75.41
2022-11-01T17:27:05.343Z,75.22
2022-11-01T17:29:32.762Z,75.10
2022-11-01T17:32:01.117Z,75.41
2022-11-01T17:34:29.074Z,75.36
2022-11-01T17:36:57.487Z,75.02
2022-11-01T17:39:26.604Z,75.50
2022-11-01T17:41:53.354Z,75.44
2022-11-01T17:44:20.051Z,75.15
2022-11-01T17:46:46.889Z,74.73
2022-11-01T17:49:15.765Z,74.75
2022-11-01T17:51:43.007Z,74.50
2022-11-01T17:54:10.135Z,74.64
2022-11-01T17:56:36.769Z,74.44
2022-11-01T17:59:03.511Z,74.42
2022-11-01T18:01:30.615Z,74.07
2022-11-01T18:03:57.437Z,74.15
2022-11-01T18:06:24.171Z,74.17
2022-11-01T18:08:51.879Z,74.20
2022-11-01T18:11:32.101Z,74.10
2022-11-01T18:14:15.399Z,73.83
2022-11-01T18:16:49.446Z,74.09
2022-11-01T18:19:51.804Z,74.12
2022-11-01T18:22:20.842Z,73.99
2022-11-01T18:24:53.288Z,73.75
2022-11-01T18:27:24.398Z,73.62
2022-11-01T18:29:52.487Z,73.57
2022-11-01T18:32:58.283Z,73.96
2022-11-01T18:35:49.643Z,73.61
2022-11-01T18:38:41.364Z,74.02
2022-11-01T18:41:13.228Z,73.62
2022-11-01T18:43:40.234Z,73.77
2022-11-01T18:46:26.726Z,73.95
2022-11-01T18:49:01.312Z,73.62
2022-11-01T18:51:33.213Z,73.69
2022-11-01T18:54:09.065Z,73.49
2022-11-01T18:56:38.390Z,73.37
2022-11-01T18:59:30.732Z,73.20
2022-11-01T19:02:00.944Z,73.15
2022-11-01T19:04:31.322Z,73.26
2022-11-01T19:07:09.784Z,73.04
2022-11-01T19:09:39.696Z,73.15
2022-11-01T19:12:13.862Z,72.81
2022-11-01T19:14:40.545Z,72.95
2022-11-01T19:17:20.044Z,73.01
2022-11-01T19:19:47.635Z,72.93
2022-11-01T19:22:36.895Z,72.74
2022-11-01T19:25:15.054Z,72.93
2022-11-01T19:27:41.805Z,72.88
2022-11-01T19:30:27.356Z,72.72
2022-11-01T19:32:55.614Z,72.44
2022-11-01T19:35:23.029Z,72.64
2022-11-01T19:37:51.991Z,72.85
2022-11-01T19:40:31.720Z,72.66
2022-11-01T19:43:06.299Z,72.73
2022-11-01T19:45:33.452Z,72.86
2022-11-01T19:48:02.248Z,72.43
2022-11-01T19:50:55.937Z,72.47
2022-11-01T19:53:26.903Z,72.57
2022-11-01T19:56:07.810Z,72.48
2022-11-01T19:58:46.486Z,72.77
2022-11-01T20:01:24.141Z,72.58
2022-11-01T20:03:55.530Z,72.69
2022-11-01T20:06:31.678Z,72.48
2022-11-01T20:09:20.177Z,72.45
2022-11-01T20:11:46.917Z,72.51
2022-11-01T20:14:13.622Z,72.19
2022-11-01T20:16:40.556Z,72.07
2022-11-01T20:19:07.272Z,72.26
2022-11-01T20:21:34.049Z,72.27
2022-11-01T20:24:00.804Z,72.22
2022-11-01T20:26:27.579Z,72.32
2022-11-01T20:28:54.254Z,72.04
2022-11-01T20:31:20.994Z,72.10
2022-11-01T20:33:47.743Z,72.18
2022-11-01T20:36:14.556Z,72.37
2022-11-01T20:38:41.323Z,72.19
2022-11-01T20:41:08.008Z,71.83
2022-11-01T20:43:34.912Z,72.10
2022-11-01T20:46:01.849Z,72.14
2022-11-01T20:48:28.548Z,71.81
2022-11-01T20:50:55.250Z,72.11
2022-11-01T20:53:25.950Z,71.98
2022-11-01T20:55:55.394Z,71.72
2022-11-01T20:58:22.469Z,71.89
2022-11-01T21:00:50.392Z,72.02
2022-11-01T21:03:19.590Z,72.00
2022-11-01T21:05:48.225Z,72.20
2022-11-01T21:08:24.958Z,72.22
2022-11-01T21:11:13.967Z,71.93
2022-11-01T21:13:45.771Z,72.24
2022-11-01T21:16:30.045Z,72.03
2022-11-01T21:19:03.467Z,72.08
2022-11-01T21:21:35.116Z,72.13
2022-11-01T21:24:19.901Z,72.27
2022-11-01T21:26:50.892Z,72.11
2022-11-01T21:29:25.896Z,72.33
2022-11-01T21:31:52.658Z,72.24
2022-11-01T21:34:27.252Z,72.40
2022-11-01T21:36:54.476Z,72.21
2022-11-01T21:39:29.083Z,72.13
2022-11-01T21:41:57.407Z,72.47
2022-11-01T21:44:25.174Z,72.25
2022-11-01T21:46:54.479Z,72.58
2022-11-01T21:49:29.613Z,72.13
2022-11-01T21:52:00.371Z,72.43
2022-11-01T21:54:29.075Z,72.37
2022-11-01T21:56:56.974Z,72.32
2022-11-01T21:59:24.703Z,72.37
2022-11-01T22:01:51.490Z,72.25
2022-11-01T22:04:18.459Z,72.06
2022-11-01T22:06:45.430Z,72.16
2022-11-01T22:09:12.311Z,71.98
2022-11-01T22:11:39.019Z,72.02
2022-11-01T22:14:06.564Z,72.08
2022-11-01T22:16:33.528Z,72.17
2022-11-01T22:19:00.508Z,72.27
2022-11-01T22:21:27.266Z,72.27
2022-11-01T22:23:53.999Z,72.33
2022-11-01T22:26:20.880Z,72.42
2022-11-01T22:28:47.658Z,72.38
2022-11-01T22:31:14.694Z,72.48
2022-11-01T22:33:41.631Z,72.23
2022-11-01T22:36:12.322Z,72.37
2022-11-01T22:38:41.603Z,72.45
2022-11-01T22:41:14.210Z,72.60
2022-11-01T22:43:44.912Z,72.62
2022-11-01T22:46:26.477Z,72.48
2022-11-01T22:49:00.232Z,72.46
2022-11-01T22:51:48.009Z,72.72
2022-11-01T22:54:34.557Z,72.63
2022-11-01T22:57:12.352Z,72.74
2022-11-01T22:59:51.696Z,72.81
2022-11-01T23:02:18.464Z,72.58
2022-11-01T23:04:45.219Z,72.43
2022-11-01T23:07:30.715Z,72.10
2022-11-01T23:10:05.396Z,72.36
2022-11-01T23:12:52.412Z,72.48
2022-11-01T23:15:37.481Z,72.37
2022-11-01T23:18:26.615Z,72.49
2022-11-01T23:20:55.574Z,72.42
2022-11-01T23:23:25.488Z,72.49
2022-11-01T23:25:53.588Z,72.39
2022-11-01T23:28:20.552Z,72.38
2022-11-01T23:30:48.182Z,72.23
2022-11-01T23:33:17.223Z,72.20
2022-11-01T23:35:57.773Z,72.38
2022-11-01T23:38:33.597Z,72.55
2022-11-01T23:41:00.336Z,72.24
2022-11-01T23:43:32.951Z,72.10
2022-11-01T23:45:59.916Z,72.15
2022-11-01T23:48:26.802Z,72.29
2022-11-01T23:50:53.943Z,71.99
2022-11-01T23:53:26.186Z,72.06
2022-11-01T23:55:53.806Z,72.16
2022-11-01T23:58:25.242Z,72.11
